createdAt,value
2022-09-15T00:02:10.646Z,94657.34
2022-09-15T00:04:37.207Z,94663.53
2022-09-15T00:07:03.732Z,94652.41
2022-09-15T00:09:30.208Z,94648.88
2022-09-15T00:11:57.205Z,94647.47
2022-09-15T00:14:23.758Z,94643.75
2022-09-15T00:16:50.305Z,94640.25
2022-09-15T00:19:16.801Z,94647.19
2022-09-15T00:21:43.273Z,94638.31
2022-09-15T00:24:09.733Z,94640.09
2022-09-15T00:26:36.614Z,94636.03
2022-09-15T00:29:04.143Z,94631.31
2022-09-15T00:31:31.707Z,94632.81
2022-09-15T00:33:59.772Z,94619.84
2022-09-15T00:36:26.747Z,94609.78
2022-09-15T00:38:53.592Z,94620.50
2022-09-15T00:41:21.852Z,94613.19
2022-09-15T00:44:06.539Z,94613.94
2022-09-15T00:46:37.196Z,94609.78
2022-09-15T00:49:03.561Z,94611.25
2022-09-15T00:51:39.082Z,94616.22
2022-09-15T00:54:09.462Z,94617.75
2022-09-15T00:56:37.922Z,94614.88
2022-09-15T00:59:07.273Z,94613.97
2022-09-15T01:01:34.060Z,94620.44
2022-09-15T01:04:00.784Z,94623.66
2022-09-15T01:06:29.332Z,94614.97
2022-09-15T01:09:14.993Z,94610.41
2022-09-15T01:11:42.206Z,94609.88
2022-09-15T01:14:08.910Z,94612.28
2022-09-15T01:16:56.735Z,94621.03
2022-09-15T01:19:29.411Z,94612.94
2022-09-15T01:22:37.005Z,94609.03
2022-09-15T01:25:07.836Z,94614.44
2022-09-15T01:27:43.307Z,94613.03
2022-09-15T01:30:12.808Z,94598.31
2022-09-15T01:33:02.140Z,94597.41
2022-09-15T01:35:46.690Z,94599.09
2022-09-15T01:38:22.249Z,94587.69
2022-09-15T01:41:13.792Z,94602.22
2022-09-15T01:43:51.553Z,94604.69
2022-09-15T01:46:20.385Z,94592.66
2022-09-15T01:48:48.917Z,94587.50
2022-09-15T01:51:16.348Z,94580.81
2022-09-15T01:53:42.934Z,94567.44
2022-09-15T01:56:10.886Z,94572.59
2022-09-15T01:58:39.096Z,94569.63
2022-09-15T02:01:22.816Z,94564.56
2022-09-15T02:03:53.128Z,94557.78
2022-09-15T02:06:26.317Z,94553.63
2022-09-15T02:09:00.365Z,94551.88
2022-09-15T02:11:26.857Z,94545.78
2022-09-15T02:14:07.333Z,94548.22
2022-09-15T02:16:35.323Z,94553.31
2022-09-15T02:19:33.901Z,94553.97
2022-09-15T02:22:17.989Z,94548.72
2022-09-15T02:24:57.180Z,94551.66
2022-09-15T02:27:25.465Z,94560.00
2022-09-15T02:29:54.147Z,94552.47
2022-09-15T02:32:22.796Z,94551.25
2022-09-15T02:34:50.453Z,94549.38
2022-09-15T02:37:21.038Z,94542.09
2022-09-15T02:39:51.378Z,94542.78
2022-09-15T02:42:28.448Z,94541.75
2022-09-15T02:44:55.646Z,94541.81
2022-09-15T02:47:23.210Z,94547.41
2022-09-15T02:49:49.854Z,94541.31
2022-09-15T02:52:16.327Z,94540.69
2022-09-15T02:54:42.812Z,94541.41
2022-09-15T02:57:09.270Z,94550.03
2022-09-15T02:59:35.718Z,94553.88
2022-09-15T03:02:02.228Z,94544.56
2022-09-15T03:04:28.726Z,94551.41
2022-09-15T03:06:55.201Z,94538.28
2022-09-15T03:09:21.620Z,94536.66
2022-09-15T03:11:48.128Z,94541.81
2022-09-15T03:14:14.561Z,94538.00
2022-09-15T03:16:41.165Z,94538.13
2022-09-15T03:19:07.620Z,94534.41
2022-09-15T03:21:35.009Z,94530.19
2022-09-15T03:24:01.670Z,94531.00
2022-09-15T03:26:28.161Z,94525.91
2022-09-15T03:28:54.627Z,94520.78
2022-09-15T03:31:21.118Z,94524.28
2022-09-15T03:33:48.096Z,94527.72
2022-09-15T03:36:14.654Z,94524.50
2022-09-15T03:38:44.053Z,94525.03
2022-09-15T03:41:11.955Z,94525.97
2022-09-15T03:43:38.905Z,94524.88
2022-09-15T03:46:06.766Z,94524.56
2022-09-15T03:48:34.793Z,94531.19
2022-09-15T03:51:03.153Z,94524.22
2022-09-15T03:53:32.034Z,94521.59
2022-09-15T03:56:42.482Z,94517.88
2022-09-15T03:59:08.946Z,94512.19
2022-09-15T04:01:35.518Z,94521.16
2022-09-15T04:04:02.295Z,94518.59
2022-09-15T04:06:28.753Z,94514.88
2022-09-15T04:08:55.240Z,94515.97
2022-09-15T04:11:22.530Z,94516.53
2022-09-15T04:13:49.284Z,94507.44
2022-09-15T04:16:18.480Z,94517.31
2022-09-15T04:18:45.504Z,94518.09
2022-09-15T04:21:14.581Z,94518.63
2022-09-15T04:23:42.007Z,94512.19
2022-09-15T04:26:19.944Z,94508.44
2022-09-15T04:28:46.471Z,94503.56
2022-09-15T04:31:14.596Z,94510.00
2022-09-15T04:33:42.461Z,94504.38
2022-09-15T04:36:14.725Z,94493.41
2022-09-15T04:38:41.423Z,94497.09
2022-09-15T04:41:08.155Z,94499.47
2022-09-15T04:43:35.312Z,94475.94
2022-09-15T04:46:01.850Z,94483.16
2022-09-15T04:48:28.585Z,94471.91
2022-09-15T04:51:01.116Z,94477.28
2022-09-15T04:53:27.588Z,94476.50
2022-09-15T04:55:54.032Z,94477.56
2022-09-15T04:58:20.560Z,94470.22
2022-09-15T05:00:47.042Z,94475.56
2022-09-15T05:03:14.386Z,94470.50
2022-09-15T05:05:41.155Z,94472.06
2022-09-15T05:08:07.678Z,94474.34
2022-09-15T05:10:34.377Z,94475.34
2022-09-15T05:13:00.812Z,94469.25
2022-09-15T05:15:27.286Z,94464.75
2022-09-15T05:17:53.817Z,94470.09
2022-09-15T05:20:20.267Z,94475.38
2022-09-15T05:22:46.707Z,94476.78
2022-09-15T05:25:13.169Z,94480.00
2022-09-15T05:27:39.652Z,94490.06
2022-09-15T05:30:38.701Z,94475.84
2022-09-15T05:32:54.318Z,94482.88
2022-09-15T05:35:20.799Z,94483.34
2022-09-15T05:37:47.273Z,94485.78
2022-09-15T05:40:13.816Z,94493.28
2022-09-15T05:42:40.287Z,94487.22
2022-09-15T05:45:07.330Z,94497.34
2022-09-15T05:47:33.796Z,94497.69
2022-09-15T05:50:00.282Z,94499.75
2022-09-15T05:52:27.997Z,94502.19
2022-09-15T05:54:58.821Z,94501.63
2022-09-15T05:57:26.438Z,94503.13
2022-09-15T05:59:53.126Z,94494.69
2022-09-15T06:02:19.621Z,94505.03
2022-09-15T06:04:46.130Z,94515.38
2022-09-15T06:07:12.562Z,94528.97
2022-09-15T06:09:39.087Z,94541.09
2022-09-15T06:12:05.730Z,94544.44
2022-09-15T06:14:32.239Z,94555.66
2022-09-15T06:16:58.676Z,94556.69
2022-09-15T06:19:25.149Z,94559.03
2022-09-15T06:21:51.685Z,94556.91
2022-09-15T06:24:19.591Z,94547.78
2022-09-15T06:26:46.111Z,94562.19
2022-09-15T06:29:12.659Z,94561.53
2022-09-15T06:31:39.309Z,94564.94
2022-09-15T06:34:05.967Z,94557.69
2022-09-15T06:36:32.888Z,94570.81
2022-09-15T06:38:59.422Z,94568.03
2022-09-15T06:41:26.550Z,94576.06
2022-09-15T06:43:53.204Z,94567.28
2022-09-15T06:46:22.656Z,94571.94
2022-09-15T06:48:49.286Z,94585.25
2022-09-15T06:51:17.422Z,94586.78
2022-09-15T06:53:44.110Z,94582.53
2022-09-15T06:56:15.876Z,94589.78
2022-09-15T06:58:43.400Z,94582.69
2022-09-15T07:01:47.556Z,94584.66
2022-09-15T07:08:41.957Z,94592.22
2022-09-15T07:11:09.414Z,94585.16
2022-09-15T07:13:36.108Z,94595.13
2022-09-15T07:16:04.455Z,94588.78
2022-09-15T07:18:31.525Z,94593.28
2022-09-15T07:21:02.877Z,94591.13
2022-09-15T07:23:29.816Z,94592.13
2022-09-15T07:26:09.331Z,94593.16
2022-09-15T07:28:36.131Z,94595.75
2022-09-15T07:31:04.224Z,94595.50
2022-09-15T07:33:30.711Z,94586.03
2022-09-15T07:35:57.180Z,94582.16
2022-09-15T07:38:23.734Z,94590.53
2022-09-15T07:40:50.168Z,94593.25
2022-09-15T07:43:16.653Z,94594.59
2022-09-15T07:45:43.120Z,94600.75
2022-09-15T07:48:09.650Z,94598.41
2022-09-15T07:50:36.178Z,94599.41
2022-09-15T07:53:02.656Z,94604.78
2022-09-15T07:55:29.118Z,94604.63
2022-09-15T07:57:59.412Z,94601.31
2022-09-15T08:00:26.403Z,94610.63
2022-09-15T08:02:52.960Z,94614.28
2022-09-15T08:05:19.533Z,94615.44
2022-09-15T08:07:46.102Z,94620.81
2022-09-15T08:10:12.553Z,94621.78
2022-09-15T08:12:39.000Z,94616.91
2022-09-15T08:15:05.705Z,94615.16
2022-09-15T08:17:32.247Z,94624.66
2022-09-15T08:19:58.751Z,94625.16
2022-09-15T08:22:25.240Z,94632.00
2022-09-15T08:24:51.721Z,94634.97
2022-09-15T08:27:18.261Z,94642.59
2022-09-15T08:29:44.743Z,94641.63
2022-09-15T08:32:11.217Z,94640.13
2022-09-15T08:34:37.693Z,94641.78
2022-09-15T08:37:04.167Z,94636.47
2022-09-15T08:39:30.628Z,94630.19
2022-09-15T08:41:57.877Z,94626.09
2022-09-15T08:44:36.647Z,94630.09
2022-09-15T08:47:27.617Z,94633.75
2022-09-15T08:50:15.909Z,94634.06
2022-09-15T08:52:46.237Z,94624.22
2022-09-15T08:55:17.999Z,94631.88
2022-09-15T08:57:44.464Z,94629.16
2022-09-15T09:00:15.396Z,94631.69
2022-09-15T09:02:52.728Z,94627.44
2022-09-15T09:05:48.320Z,94634.91
2022-09-15T09:08:43.520Z,94631.41
2022-09-15T09:11:15.945Z,94634.72
2022-09-15T09:14:05.184Z,94648.97
2022-09-15T09:16:52.832Z,94636.47
2022-09-15T09:19:32.124Z,94632.75
2022-09-15T09:22:03.617Z,94639.63
2022-09-15T09:24:40.889Z,94641.72
2022-09-15T09:27:12.999Z,94643.97
2022-09-15T09:29:42.778Z,94641.84
2022-09-15T09:32:22.425Z,94651.06
2022-09-15T09:34:59.055Z,94645.66
2022-09-15T09:37:25.532Z,94646.78
2022-09-15T09:39:52.034Z,94651.56
2022-09-15T09:42:18.787Z,94642.00
2022-09-15T09:44:46.361Z,94653.06
2022-09-15T09:47:12.859Z,94647.22
2022-09-15T09:49:49.539Z,94643.25
2022-09-15T09:52:41.392Z,94646.78
2022-09-15T09:55:22.583Z,94637.06
2022-09-15T09:57:49.704Z,94633.19
2022-09-15T10:00:30.467Z,94626.63
2022-09-15T10:02:57.099Z,94628.09
2022-09-15T10:05:23.630Z,94626.16
2022-09-15T10:07:50.226Z,94626.31
2022-09-15T10:10:24.704Z,94626.09
2022-09-15T10:12:55.309Z,94619.63
2022-09-15T10:15:27.366Z,94622.28
2022-09-15T10:17:54.644Z,94614.88
2022-09-15T10:20:32.760Z,94621.53
2022-09-15T10:23:07.096Z,94623.34
2022-09-15T10:25:57.496Z,94622.69
2022-09-15T10:28:23.326Z,94623.09
2022-09-15T10:30:58.888Z,94624.88
2022-09-15T10:33:26.186Z,94620.75
2022-09-15T10:35:53.687Z,94623.56
2022-09-15T10:38:37.802Z,94615.56
2022-09-15T10:41:22.788Z,94601.69
2022-09-15T10:44:13.705Z,94612.59
2022-09-15T10:47:09.126Z,94604.59
2022-09-15T10:49:48.368Z,94596.81
2022-09-15T10:52:31.056Z,94605.56
2022-09-15T10:55:00.517Z,94602.22
2022-09-15T10:57:48.868Z,94605.78
2022-09-15T11:00:22.774Z,94604.69
2022-09-15T11:03:07.853Z,94607.53
2022-09-15T11:05:41.196Z,94611.75
2022-09-15T11:08:15.820Z,94613.59
2022-09-15T11:11:07.161Z,94613.63
2022-09-15T11:13:41.033Z,94604.56
2022-09-15T11:16:26.318Z,94608.09
2022-09-15T11:19:11.629Z,94601.16
2022-09-15T11:21:45.330Z,94595.63
2022-09-15T11:24:42.081Z,94598.91
2022-09-15T11:27:20.145Z,94596.53
2022-09-15T11:30:03.894Z,94600.38
2022-09-15T11:32:36.616Z,94596.75
2022-09-15T11:35:29.203Z,94602.91
2022-09-15T11:37:59.726Z,94598.88
2022-09-15T11:40:35.082Z,94591.44
2022-09-15T11:43:34.860Z,94595.25
2022-09-15T11:46:03.256Z,94595.91
2022-09-15T11:48:42.008Z,94595.03
2022-09-15T11:51:09.659Z,94597.66
2022-09-15T11:54:18.251Z,94592.88
2022-09-15T11:56:46.706Z,94590.16
2022-09-15T11:59:46.698Z,94596.00
2022-09-15T12:02:26.298Z,94602.44
2022-09-15T12:05:02.417Z,94593.72
2022-09-15T12:07:31.535Z,94599.31
2022-09-15T12:10:05.604Z,94593.38
2022-09-15T12:12:33.494Z,94594.56
2022-09-15T12:14:59.972Z,94597.50
2022-09-15T12:17:34.178Z,94597.03
2022-09-15T12:20:40.716Z,94604.00
2022-09-15T12:23:10.180Z,94603.56
2022-09-15T12:25:41.881Z,94610.59
2022-09-15T12:28:24.897Z,94615.19
2022-09-15T12:31:29.764Z,94618.22
2022-09-15T12:34:04.585Z,94621.63
2022-09-15T12:36:43.038Z,94620.94
2022-09-15T12:39:20.944Z,94619.91
2022-09-15T12:41:53.396Z,94625.06
2022-09-15T12:45:06.126Z,94624.44
2022-09-15T12:47:48.842Z,94629.78
2022-09-15T12:50:15.217Z,94625.63
2022-09-15T12:52:47.322Z,94639.78
2022-09-15T12:55:23.136Z,94634.72
2022-09-15T12:57:53.063Z,94627.56
2022-09-15T13:00:28.830Z,94618.44
2022-09-15T13:02:55.758Z,94621.97
2022-09-15T13:05:41.230Z,94626.91
2022-09-15T13:08:12.709Z,94617.53
2022-09-15T13:10:41.424Z,94617.22
2022-09-15T13:13:13.832Z,94630.09
2022-09-15T13:15:43.381Z,94621.53
2022-09-15T13:18:09.941Z,94613.34
2022-09-15T13:20:38.353Z,94596.34
2022-09-15T13:23:08.459Z,94592.25
2022-09-15T13:25:35.834Z,94590.19
2022-09-15T13:28:02.560Z,94586.53
2022-09-15T13:30:28.977Z,94595.63
2022-09-15T13:35:01.062Z,94581.63
2022-09-15T13:36:22.450Z,94583.09
2022-09-15T13:39:04.606Z,94581.38
2022-09-15T13:41:58.949Z,94583.13
2022-09-15T13:44:34.216Z,94573.81
2022-09-15T13:47:17.017Z,94580.34
2022-09-15T13:49:57.664Z,94574.31
2022-09-15T13:52:31.060Z,94565.72
2022-09-15T13:55:15.106Z,94568.72
2022-09-15T14:00:33.877Z,94562.38
2022-09-15T14:03:01.861Z,94557.28
2022-09-15T14:05:30.222Z,94557.66
2022-09-15T14:08:01.266Z,94547.00
2022-09-15T14:10:31.008Z,94543.81
2022-09-15T14:13:00.717Z,94528.72
2022-09-15T14:15:28.731Z,94530.69
2022-09-15T14:17:55.736Z,94532.25
2022-09-15T14:20:25.701Z,94529.78
2022-09-15T14:22:52.162Z,94516.47
2022-09-15T14:25:20.073Z,94515.53
2022-09-15T14:27:54.176Z,94509.47
2022-09-15T14:30:29.859Z,94515.94
2022-09-15T14:33:01.128Z,94512.94
2022-09-15T14:35:30.698Z,94511.41
2022-09-15T14:37:59.326Z,94518.53
2022-09-15T14:40:35.298Z,94514.69
2022-09-15T14:43:02.228Z,94515.69
2022-09-15T14:48:26.899Z,94521.09
2022-09-15T14:51:05.408Z,94516.53
2022-09-15T14:53:35.018Z,94522.56
2022-09-15T14:56:08.705Z,94525.56
2022-09-15T14:58:42.871Z,94517.97
2022-09-15T15:01:14.379Z,94515.41
2022-09-15T15:03:48.228Z,94514.63
2022-09-15T15:06:34.594Z,94515.66
2022-09-15T15:09:03.407Z,94521.56
2022-09-15T15:11:31.250Z,94524.00
2022-09-15T15:13:57.749Z,94520.59
2022-09-15T15:16:29.875Z,94521.88
2022-09-15T15:18:56.864Z,94520.38
2022-09-15T15:21:37.121Z,94523.41
2022-09-15T15:24:09.636Z,94530.38
2022-09-15T15:26:37.730Z,94533.78
2022-09-15T15:29:08.165Z,94546.41
2022-09-15T15:31:38.773Z,94555.06
2022-09-15T15:34:06.897Z,94552.59
2022-09-15T15:36:34.734Z,94561.69
2022-09-15T15:39:06.350Z,94560.81
2022-09-15T15:41:38.986Z,94554.84
2022-09-15T15:44:16.026Z,94557.91
2022-09-15T15:47:01.625Z,94559.78
2022-09-15T15:49:30.467Z,94559.19
2022-09-15T15:51:58.841Z,94553.50
2022-09-15T15:54:26.483Z,94562.69
2022-09-15T15:56:53.301Z,94556.13
2022-09-15T15:59:20.044Z,94566.56
2022-09-15T16:01:48.828Z,94562.22
2022-09-15T16:04:15.381Z,94564.78
2022-09-15T16:06:43.057Z,94566.50
2022-09-15T16:09:09.518Z,94567.91
2022-09-15T16:11:35.999Z,94558.16
2022-09-15T16:14:02.455Z,94560.44
2022-09-15T16:16:28.976Z,94556.00
2022-09-15T16:18:55.567Z,94552.09
2022-09-15T16:21:32.520Z,94556.84
2022-09-15T16:23:58.967Z,94558.91
2022-09-15T16:26:26.067Z,94561.97
2022-09-15T16:28:52.641Z,94568.22
2022-09-15T16:31:19.241Z,94567.03
2022-09-15T16:33:45.813Z,94568.09
2022-09-15T16:36:14.333Z,94573.38
2022-09-15T16:38:41.342Z,94563.75
2022-09-15T16:41:21.867Z,94571.75
2022-09-15T16:43:48.959Z,94576.72
2022-09-15T16:46:15.960Z,94588.13
2022-09-15T16:48:43.795Z,94597.00
2022-09-15T16:51:31.611Z,94600.09
2022-09-15T16:53:58.483Z,94609.13
2022-09-15T16:56:25.029Z,94602.63
2022-09-15T16:58:54.780Z,94610.28
2022-09-15T17:01:23.904Z,94613.28
2022-09-15T17:03:50.457Z,94613.06
2022-09-15T17:06:17.428Z,94613.84
2022-09-15T17:08:44.007Z,94617.97
2022-09-15T17:11:16.667Z,94614.50
2022-09-15T17:13:43.865Z,94617.97
2022-09-15T17:16:11.161Z,94617.41
2022-09-15T17:18:37.708Z,94628.72
2022-09-15T17:21:04.266Z,94631.84
2022-09-15T17:23:41.527Z,94628.19
2022-09-15T17:26:13.594Z,94628.97
2022-09-15T17:28:40.626Z,94624.81
2022-09-15T17:31:14.125Z,94620.75
2022-09-15T17:33:40.923Z,94624.91
2022-09-15T17:36:07.582Z,94619.75
2022-09-15T17:38:34.220Z,94621.72
2022-09-15T17:41:00.700Z,94628.31
2022-09-15T17:43:29.825Z,94626.50
2022-09-15T17:45:56.599Z,94631.22
2022-09-15T17:48:23.793Z,94626.66
2022-09-15T17:50:50.499Z,94626.22
2022-09-15T17:53:18.866Z,94628.22
2022-09-15T17:55:45.294Z,94627.88
2022-09-15T17:58:11.760Z,94636.72
2022-09-15T18:00:40.081Z,94636.16
2022-09-15T18:03:28.943Z,94637.66
2022-09-15T18:05:56.726Z,94642.66
2022-09-15T18:08:23.256Z,94650.56
2022-09-15T18:10:49.756Z,94656.66
2022-09-15T18:13:18.880Z,94653.41
2022-09-15T18:15:45.479Z,94654.19
2022-09-15T18:18:14.552Z,94652.69
2022-09-15T18:20:41.329Z,94656.59
2022-09-15T18:23:15.866Z,94659.16
2022-09-15T18:25:42.494Z,94653.66
2022-09-15T18:28:11.597Z,94655.16
2022-09-15T18:30:39.787Z,94650.91
2022-09-15T18:33:23.695Z,94661.41
2022-09-15T18:35:56.504Z,94655.06
2022-09-15T18:38:23.228Z,94658.28
2022-09-15T18:40:52.004Z,94658.91
2022-09-15T18:43:19.437Z,94668.84
2022-09-15T18:45:46.216Z,94661.47
2022-09-15T18:48:13.080Z,94674.56
2022-09-15T18:50:40.497Z,94675.38
2022-09-15T18:53:07.011Z,94679.00
2022-09-15T18:55:33.532Z,94677.31
2022-09-15T18:58:01.178Z,94684.91
2022-09-15T19:00:28.862Z,94682.16
2022-09-15T19:02:56.903Z,94683.03
2022-09-15T19:05:24.047Z,94683.84
2022-09-15T19:07:50.523Z,94694.09
2022-09-15T19:10:17.033Z,94690.22
2022-09-15T19:12:44.000Z,94692.84
2022-09-15T19:15:12.209Z,94699.06
2022-09-15T19:17:39.694Z,94692.28
2022-09-15T19:20:07.470Z,94693.22
2022-09-15T19:22:36.156Z,94692.38
2022-09-15T19:25:03.332Z,94688.06
2022-09-15T19:27:29.855Z,94688.19
2022-09-15T19:29:56.302Z,94695.25
2022-09-15T19:32:22.909Z,94707.00
2022-09-15T19:34:49.783Z,94702.25
2022-09-15T19:37:21.079Z,94702.34
2022-09-15T19:39:48.069Z,94696.72
2022-09-15T19:44:47.092Z,94697.97
2022-09-15T19:47:13.576Z,94697.41
2022-09-15T19:49:40.053Z,94699.63
2022-09-15T19:52:06.633Z,94705.00
2022-09-15T19:54:33.629Z,94698.63
2022-09-15T19:57:00.118Z,94694.13
2022-09-15T19:59:42.875Z,94706.44
2022-09-15T20:02:18.560Z,94702.97
2022-09-15T20:04:45.242Z,94706.69
2022-09-15T20:07:11.703Z,94705.25
2022-09-15T20:12:28.399Z,94702.69
2022-09-15T20:14:54.870Z,94713.28
2022-09-15T20:17:21.387Z,94711.63
2022-09-15T20:19:47.948Z,94715.31
2022-09-15T20:22:14.647Z,94717.56
2022-09-15T20:24:41.119Z,94716.00
2022-09-15T20:27:07.704Z,94716.63
2022-09-15T20:29:34.500Z,94724.09
2022-09-15T20:32:01.019Z,94718.22
2022-09-15T20:34:29.975Z,94729.78
2022-09-15T20:36:56.562Z,94728.34
2022-09-15T20:39:23.011Z,94725.13
2022-09-15T20:41:49.461Z,94728.53
2022-09-15T20:44:16.012Z,94730.97
2022-09-15T20:46:42.512Z,94728.56
2022-09-15T20:49:11.313Z,94727.19
2022-09-15T20:51:37.831Z,94732.78
2022-09-15T20:54:04.844Z,94729.03
2022-09-15T20:56:36.126Z,94729.91
2022-09-15T20:59:04.778Z,94731.00
2022-09-15T21:01:37.049Z,94734.25
2022-09-15T21:04:05.599Z,94735.13
2022-09-15T21:06:32.482Z,94733.59
2022-09-15T21:08:58.996Z,94733.59
2022-09-15T21:11:26.755Z,94737.91
2022-09-15T21:13:54.258Z,94732.53
2022-09-15T21:16:23.219Z,94735.75
2022-09-15T21:18:50.339Z,94735.19
2022-09-15T21:21:21.427Z,94733.88
2022-09-15T21:23:49.798Z,94731.75
2022-09-15T21:26:18.040Z,94734.00
2022-09-15T21:28:45.153Z,94737.72
2022-09-15T21:31:22.606Z,94732.66
2022-09-15T21:33:49.540Z,94733.00
2022-09-15T21:36:24.055Z,94735.84
2022-09-15T21:38:53.983Z,94728.53
2022-09-15T21:41:22.782Z,94734.91
2022-09-15T21:43:50.553Z,94732.94
2022-09-15T21:46:18.915Z,94731.31
2022-09-15T21:48:46.440Z,94731.34
2022-09-15T21:51:13.987Z,94731.94
2022-09-15T21:53:40.978Z,94728.91
2022-09-15T21:56:08.826Z,94732.09
2022-09-15T21:58:41.753Z,94727.00
2022-09-15T22:01:27.105Z,94719.25
2022-09-15T22:03:55.733Z,94722.47
2022-09-15T22:06:24.194Z,94727.56
2022-09-15T22:08:50.723Z,94720.00
2022-09-15T22:11:17.152Z,94729.91
2022-09-15T22:13:43.898Z,94731.50
2022-09-15T22:16:19.492Z,94729.16
2022-09-15T22:18:46.457Z,94731.69
2022-09-15T22:21:18.798Z,94726.34
2022-09-15T22:23:46.884Z,94728.81
2022-09-15T22:26:16.418Z,94724.56
2022-09-15T22:28:43.219Z,94720.78
2022-09-15T22:31:11.481Z,94718.59
2022-09-15T22:33:38.009Z,94723.72
2022-09-15T22:36:04.691Z,94722.28
2022-09-15T22:38:31.997Z,94724.84
2022-09-15T22:41:04.372Z,94728.97
2022-09-15T22:43:30.868Z,94726.91
2022-09-15T22:45:57.380Z,94724.69
2022-09-15T22:48:23.994Z,94730.19
2022-09-15T22:50:50.516Z,94729.88
2022-09-15T22:53:16.964Z,94717.69
2022-09-15T22:55:43.523Z,94717.09
2022-09-15T22:58:09.960Z,94717.91
2022-09-15T23:00:39.449Z,94721.72
2022-09-15T23:03:06.525Z,94724.47
2022-09-15T23:05:33.427Z,94720.97
2022-09-15T23:08:00.054Z,94716.28
2022-09-15T23:10:26.531Z,94715.69
2022-09-15T23:12:53.074Z,94715.94
2022-09-15T23:15:19.645Z,94711.38
2022-09-15T23:17:46.673Z,94712.69
2022-09-15T23:20:13.196Z,94713.00
2022-09-15T23:22:39.694Z,94714.06
2022-09-15T23:25:06.413Z,94713.94
2022-09-15T23:27:32.899Z,94712.75
2022-09-15T23:29:59.350Z,94698.06
2022-09-15T23:32:25.856Z,94701.03
2022-09-15T23:34:52.294Z,94702.28
2022-09-15T23:37:18.731Z,94700.63
2022-09-15T23:39:45.220Z,94705.16
2022-09-15T23:42:15.567Z,94698.91
2022-09-15T23:44:44.652Z,94698.59
2022-09-15T23:47:11.096Z,94701.03
2022-09-15T23:49:37.594Z,94697.38
2022-09-15T23:52:04.069Z,94696.47
2022-09-15T23:54:30.572Z,94697.63
2022-09-15T23:56:57.023Z,94693.59
2022-09-15T23:59:23.593Z,94693.09
